Time;durP1;ratioP1;P1;durP2;ratioP2;P2;SDS_P1;SDS_P2;PMS_P1;PMS_P2;Temp;Humidity;BMP_temperature;BMP_pressure;BME280_temperature;BME280_humidity;BME280_pressure;Samples;Min_cycle;Max_cycle;Signal;HPM_P1;HPM_P2
2022/06/03 00:00:22;;;;;;;0.80;0.60;;;;;;;;;;4915963;29;20045;-84
2022/06/03 00:03:11;;;;;;;0.90;0.55;;;;;;;;;;4920749;29;20355;-80
2022/06/03 00:05:46;;;;;;;0.35;0.15;;;;;;;;;;4917663;29;20061;-82
2022/06/03 00:08:33;;;;;;;0.30;0.30;;;;;;;;;;4934551;29;20034;-83
2022/06/03 00:11:36;;;;;;;0.73;0.73;;;;;;;;;;4921917;29;20068;-82
2022/06/03 00:14:30;;;;;;;0.20;0.20;;;;;;;;;;4921038;29;20454;-83
2022/06/03 00:17:01;;;;;;;0.50;0.50;;;;;;;;;;4961156;28;20061;-83
2022/06/03 00:19:40;;;;;;;0.40;0.40;;;;;;;;;;4983296;28;20038;-84
2022/06/03 00:22:21;;;;;;;0.45;0.38;;;;;;;;;;4974424;28;20034;-83
2022/06/03 00:25:07;;;;;;;0.30;0.30;;;;;;;;;;4962468;28;20046;-84
2022/06/03 00:27:35;;;;;;;0.73;0.73;;;;;;;;;;4979495;28;20364;-84
2022/06/03 00:30:29;;;;;;;0.80;0.80;;;;;;;;;;4978373;28;20571;-84
2022/06/03 00:33:05;;;;;;;0.80;0.68;;;;;;;;;;4977184;28;20415;-82
2022/06/03 00:36:01;;;;;;;0.63;0.63;;;;;;;;;;4976280;28;20026;-83
2022/06/03 00:38:38;;;;;;;0.35;0.32;;;;;;;;;;4975190;28;20428;-83
2022/06/03 00:41:28;;;;;;;1.38;0.40;;;;;;;;;;4975881;28;20040;-82
2022/06/03 00:44:11;;;;;;;0.47;0.43;;;;;;;;;;4978514;28;20041;-82
2022/06/03 00:46:43;;;;;;;0.80;0.40;;;;;;;;;;4977883;28;20035;-82
2022/06/03 00:49:27;;;;;;;0.57;0.57;;;;;;;;;;4962343;28;20069;-81
2022/06/03 00:52:04;;;;;;;1.55;1.20;;;;;;;;;;4975695;28;20026;-84
2022/06/03 00:54:39;;;;;;;0.25;0.25;;;;;;;;;;4977357;28;20093;-83
2022/06/03 00:57:26;;;;;;;1.38;1.15;;;;;;;;;;4958973;28;20130;-84
2022/06/03 00:59:51;;;;;;;0.77;0.77;;;;;;;;;;4981009;28;20037;-84
2022/06/03 01:02:28;;;;;;;0.95;0.32;;;;;;;;;;4972603;28;20030;-83
2022/06/03 01:05:00;;;;;;;0.35;0.15;;;;;;;;;;4977580;28;20117;-83
2022/06/03 01:07:46;;;;;;;;;;;;;;;;;;4973325;28;20209;-83
2022/06/03 01:10:26;;;;;;;0.50;0.50;;;;;;;;;;4991433;28;19925;-83
2022/06/03 01:13:12;;;;;;;0.30;0.30;;;;;;;;;;4983583;28;20401;-83
2022/06/03 01:15:50;;;;;;;1.02;0.68;;;;;;;;;;4977739;28;20030;-84
2022/06/03 01:18:18;;;;;;;0.90;0.85;;;;;;;;;;4976258;28;20105;-83
2022/06/03 01:21:02;;;;;;;0.80;0.35;;;;;;;;;;4959136;28;20496;-83
2022/06/03 01:23:51;;;;;;;0.28;0.28;;;;;;;;;;4955565;28;20030;-82
2022/06/03 01:26:29;;;;;;;0.70;0.40;;;;;;;;;;4977145;28;20034;-83
2022/06/03 01:29:32;;;;;;;0.43;0.30;;;;;;;;;;4960881;28;20356;-83
2022/06/03 01:32:19;;;;;;;;;;;;;;;;;;4983807;28;20029;-83
2022/06/03 01:35:09;;;;;;;0.52;0.52;;;;;;;;;;4976977;28;20021;-83
2022/06/03 01:38:00;;;;;;;1.13;0.93;;;;;;;;;;4977636;28;20118;-83
2022/06/03 01:40:35;;;;;;;0.43;0.43;;;;;;;;;;4992619;28;20049;-83
2022/06/03 01:43:25;;;;;;;0.60;0.50;;;;;;;;;;4966839;28;20042;-81
2022/06/03 01:46:18;;;;;;;0.70;0.70;;;;;;;;;;4995548;28;20038;-83
2022/06/03 01:48:55;;;;;;;0.73;0.52;;;;;;;;;;4983311;28;20027;-82
2022/06/03 01:51:41;;;;;;;0.85;0.60;;;;;;;;;;4971157;28;20034;-83
2022/06/03 01:54:15;;;;;;;0.40;0.40;;;;;;;;;;4987116;28;20034;-83
2022/06/03 01:56:56;;;;;;;0.63;0.63;;;;;;;;;;4990720;28;20027;-82
2022/06/03 01:59:41;;;;;;;0.70;0.70;;;;;;;;;;4985267;28;20424;-83
2022/06/03 02:02:53;;;;;;;0.55;0.30;;;;;;;;;;4992589;28;20046;-81
2022/06/03 02:05:46;;;;;;;1.13;0.53;;;;;;;;;;4979187;28;20089;-82
2022/06/03 02:08:11;;;;;;;0.55;0.55;;;;;;;;;;4985507;28;20117;-83
2022/06/03 02:11:00;;;;;;;0.75;0.63;;;;;;;;;;4987941;28;20515;-83
2022/06/03 02:13:52;;;;;;;0.70;0.65;;;;;;;;;;4970703;28;20038;-81
2022/06/03 02:16:23;;;;;;;1.33;0.60;;;;;;;;;;4967785;28;20049;-83
2022/06/03 02:19:07;;;;;;;0.25;0.25;;;;;;;;;;4976825;28;20522;-85
2022/06/03 02:21:47;;;;;;;0.70;0.70;;;;;;;;;;4974588;28;20106;-83
2022/06/03 02:24:39;;;;;;;1.15;0.63;;;;;;;;;;4977822;28;20093;-83
2022/06/03 02:27:34;;;;;;;0.70;0.70;;;;;;;;;;4977067;28;20391;-82
2022/06/03 02:30:30;;;;;;;0.60;0.60;;;;;;;;;;4961121;28;20405;-78
2022/06/03 02:33:28;;;;;;;0.20;0.20;;;;;;;;;;4975102;28;20042;-78
2022/06/03 02:36:21;;;;;;;0.38;0.35;;;;;;;;;;4982080;28;20027;-79
2022/06/03 02:38:46;;;;;;;0.52;0.52;;;;;;;;;;4970196;28;20035;-79
2022/06/03 02:41:12;;;;;;;0.52;0.50;;;;;;;;;;4975125;28;20030;-81
2022/06/03 02:44:02;;;;;;;0.73;0.70;;;;;;;;;;4974424;28;20065;-79
2022/06/03 02:46:58;;;;;;;1.00;0.57;;;;;;;;;;4962715;28;20042;-78
2022/06/03 02:49:52;;;;;;;0.13;0.13;;;;;;;;;;4974941;28;20026;-78
2022/06/03 02:52:20;;;;;;;0.30;0.30;;;;;;;;;;4971720;28;20032;-79
2022/06/03 02:55:25;;;;;;;0.50;0.50;;;;;;;;;;4976202;28;20034;-78
2022/06/03 02:57:59;;;;;;;0.57;0.52;;;;;;;;;;4970568;28;20030;-79
2022/06/03 03:00:33;;;;;;;0.38;0.30;;;;;;;;;;4980236;28;20030;-78
2022/06/03 03:03:17;;;;;;;0.25;0.25;;;;;;;;;;4975421;28;20062;-78
2022/06/03 03:06:10;;;;;;;0.52;0.52;;;;;;;;;;4977019;28;20030;-78
2022/06/03 03:08:54;;;;;;;2.60;0.80;;;;;;;;;;4972778;28;20043;-78
2022/06/03 03:11:41;;;;;;;1.77;1.02;;;;;;;;;;4957733;28;20105;-78
2022/06/03 03:14:25;;;;;;;0.60;0.60;;;;;;;;;;4971974;28;20037;-77
2022/06/03 03:17:18;;;;;;;0.63;0.63;;;;;;;;;;4972488;28;20110;-78
2022/06/03 03:19:55;;;;;;;0.75;0.75;;;;;;;;;;4974017;28;20088;-78
2022/06/03 03:23:00;;;;;;;2.83;0.47;;;;;;;;;;4974537;28;20458;-78
2022/06/03 03:25:50;;;;;;;1.17;0.80;;;;;;;;;;4969572;28;20476;-78
2022/06/03 03:28:21;;;;;;;1.35;0.70;;;;;;;;;;4974397;28;20041;-78
2022/06/03 03:31:27;;;;;;;0.20;0.20;;;;;;;;;;4975041;28;20030;-78
2022/06/03 03:33:55;;;;;;;0.75;0.55;;;;;;;;;;4953656;28;20353;-78
2022/06/03 03:36:48;;;;;;;0.60;0.60;;;;;;;;;;4974107;28;20034;-78
2022/06/03 03:39:24;;;;;;;;;;;;;;;;;;4980349;28;20368;-78
2022/06/03 03:42:05;;;;;;;0.85;0.85;;;;;;;;;;4973948;28;19973;-76
2022/06/03 03:45:05;;;;;;;1.05;0.95;;;;;;;;;;4976724;28;20090;-78
2022/06/03 03:47:40;;;;;;;0.25;0.25;;;;;;;;;;4974352;28;20035;-78
2022/06/03 03:50:20;;;;;;;0.30;0.30;;;;;;;;;;4969434;28;20106;-78
2022/06/03 03:53:16;;;;;;;0.40;0.40;;;;;;;;;;4975330;28;20031;-78
2022/06/03 03:56:03;;;;;;;0.68;0.68;;;;;;;;;;4974775;28;20037;-78
2022/06/03 03:58:47;;;;;;;0.52;0.52;;;;;;;;;;4971797;28;20033;-78
2022/06/03 04:01:30;;;;;;;0.73;0.73;;;;;;;;;;4973098;28;20014;-79
2022/06/03 04:04:20;;;;;;;0.10;0.10;;;;;;;;;;4974198;28;20460;-79
2022/06/03 04:07:11;;;;;;;1.17;0.95;;;;;;;;;;4977638;28;20058;-79
2022/06/03 04:09:39;;;;;;;0.32;0.32;;;;;;;;;;4968935;28;20050;-78
2022/06/03 04:12:13;;;;;;;7.15;0.95;;;;;;;;;;4968512;28;20030;-78
2022/06/03 04:14:39;;;;;;;0.32;0.30;;;;;;;;;;4973269;28;20100;-78
2022/06/03 04:17:34;;;;;;;0.10;0.10;;;;;;;;;;4973171;28;20061;-78
2022/06/03 04:20:06;;;;;;;0.98;0.80;;;;;;;;;;4974299;28;20026;-79
2022/06/03 04:22:47;;;;;;;0.52;0.52;;;;;;;;;;4975178;28;20087;-79
2022/06/03 04:25:40;;;;;;;1.45;1.35;;;;;;;;;;4980764;28;20058;-78
2022/06/03 04:28:30;;;;;;;0.28;0.25;;;;;;;;;;4973661;28;20069;-79
2022/06/03 04:31:10;;;;;;;0.40;0.40;;;;;;;;;;4974243;28;20105;-79
2022/06/03 04:33:55;;;;;;;0.90;0.20;;;;;;;;;;4974248;28;20113;-79
2022/06/03 04:36:48;;;;;;;0.75;0.38;;;;;;;;;;4981053;28;20071;-78
2022/06/03 04:39:22;;;;;;;1.40;0.93;;;;;;;;;;4967653;28;20053;-78
2022/06/03 04:41:53;;;;;;;3.00;0.57;;;;;;;;;;4970588;28;20030;-79
2022/06/03 04:44:56;;;;;;;0.40;0.40;;;;;;;;;;4974900;28;20122;-79
2022/06/03 04:47:27;;;;;;;2.67;1.02;;;;;;;;;;4974901;28;20029;-79
2022/06/03 04:50:29;;;;;;;1.13;0.63;;;;;;;;;;4980462;28;20130;-79
2022/06/03 04:53:25;;;;;;;0.60;0.60;;;;;;;;;;4973074;28;20030;-78
2022/06/03 04:56:09;;;;;;;1.75;1.00;;;;;;;;;;4971703;28;20027;-78
2022/06/03 04:59:06;;;;;;;2.05;1.15;;;;;;;;;;4974294;28;20031;-79
2022/06/03 05:01:52;;;;;;;0.90;0.57;;;;;;;;;;4970651;28;20031;-79
2022/06/03 05:04:23;;;;;;;0.75;0.75;;;;;;;;;;4974292;28;20043;-78
2022/06/03 05:06:56;;;;;;;1.08;0.88;;;;;;;;;;4976916;28;20029;-79
2022/06/03 05:09:59;;;;;;;1.60;1.50;;;;;;;;;;4977624;28;20031;-79
2022/06/03 05:12:57;;;;;;;4.88;1.40;;;;;;;;;;4978203;28;20453;-79
2022/06/03 05:15:34;;;;;;;0.75;0.57;;;;;;;;;;4978188;28;20038;-79
2022/06/03 05:18:22;;;;;;;1.02;0.90;;;;;;;;;;4979358;28;20104;-79
2022/06/03 05:21:02;;;;;;;0.73;0.73;;;;;;;;;;4976282;28;20050;-79
2022/06/03 05:23:55;;;;;;;0.85;0.85;;;;;;;;;;4977061;28;20093;-79
2022/06/03 05:27:18;;;;;;;0.40;0.40;;;;;;;;;;4976645;28;20094;-78
2022/06/03 05:30:04;;;;;;;1.10;0.77;;;;;;;;;;4956618;29;20396;-79
2022/06/03 05:33:03;;;;;;;1.05;1.00;;;;;;;;;;4952101;29;20039;-79
2022/06/03 05:35:46;;;;;;;1.35;0.93;;;;;;;;;;4976848;28;20073;-79
2022/06/03 05:38:41;;;;;;;2.28;0.73;;;;;;;;;;4977037;28;20034;-79
2022/06/03 05:44:46;;;;;;;0.50;0.50;;;;;;;;;;4975051;28;20050;-78
2022/06/03 05:47:28;;;;;;;0.60;0.60;;;;;;;;;;4976167;28;20451;-78
2022/06/03 05:50:02;;;;;;;1.33;1.13;;;;;;;;;;4977600;28;20031;-79
2022/06/03 05:52:58;;;;;;;0.60;0.35;;;;;;;;;;4976665;28;20023;-79
2022/06/03 05:55:34;;;;;;;0.80;0.60;;;;;;;;;;4976675;28;20055;-79
2022/06/03 05:58:05;;;;;;;1.25;0.28;;;;;;;;;;4980011;28;20035;-79
2022/06/03 06:00:59;;;;;;;2.15;0.80;;;;;;;;;;4977058;28;20031;-79
2022/06/03 06:03:52;;;;;;;0.60;0.47;;;;;;;;;;4980170;28;20061;-80
2022/06/03 06:06:39;;;;;;;1.02;0.93;;;;;;;;;;4989727;28;20050;-79
2022/06/03 06:09:43;;;;;;;0.50;0.50;;;;;;;;;;4976258;28;20023;-78
2022/06/03 06:12:30;;;;;;;0.65;0.40;;;;;;;;;;4976768;28;20037;-80
2022/06/03 06:15:18;;;;;;;0.65;0.65;;;;;;;;;;4971561;28;20037;-79
2022/06/03 06:18:01;;;;;;;0.65;0.40;;;;;;;;;;4972320;28;20047;-79
2022/06/03 06:20:45;;;;;;;;;;;;;;;;;;4977113;28;20030;-80
2022/06/03 06:23:45;;;;;;;1.52;0.43;;;;;;;;;;4972972;28;19925;-79
2022/06/03 06:26:31;;;;;;;0.50;0.50;;;;;;;;;;4972520;28;20027;-79
2022/06/03 06:29:24;;;;;;;4.78;2.13;;;;;;;;;;4975880;28;20045;-79
2022/06/03 06:32:26;;;;;;;0.20;0.20;;;;;;;;;;4976054;28;20499;-79
2022/06/03 06:35:13;;;;;;;0.35;0.35;;;;;;;;;;4975875;28;20384;-80
2022/06/03 06:37:57;;;;;;;0.65;0.65;;;;;;;;;;4975925;28;20037;-79
2022/06/03 06:40:46;;;;;;;0.55;0.55;;;;;;;;;;4971584;28;20491;-78
2022/06/03 06:43:30;;;;;;;0.95;0.40;;;;;;;;;;4956517;28;20464;-80
2022/06/03 06:46:00;;;;;;;3.20;0.80;;;;;;;;;;4975125;28;20519;-80
2022/06/03 06:48:27;;;;;;;0.25;0.25;;;;;;;;;;4966947;28;20117;-80
2022/06/03 06:51:00;;;;;;;0.40;0.40;;;;;;;;;;4980200;28;20460;-79
2022/06/03 06:53:48;;;;;;;1.23;0.30;;;;;;;;;;4986208;28;20126;-80
2022/06/03 06:56:23;;;;;;;1.55;0.43;;;;;;;;;;4974314;28;20349;-79
2022/06/03 06:58:56;;;;;;;0.20;0.17;;;;;;;;;;4972213;28;20034;-79
2022/06/03 07:01:25;;;;;;;0.17;0.17;;;;;;;;;;4988440;28;20154;-79
2022/06/03 07:04:19;;;;;;;1.02;0.65;;;;;;;;;;4974515;28;20101;-80
2022/06/03 07:06:52;;;;;;;0.43;0.43;;;;;;;;;;4987936;28;20130;-81
2022/06/03 07:09:32;;;;;;;0.20;0.20;;;;;;;;;;4977625;28;20022;-80
2022/06/03 07:12:04;;;;;;;0.30;0.22;;;;;;;;;;4974187;28;20352;-80
2022/06/03 07:14:32;;;;;;;0.47;0.45;;;;;;;;;;4975203;28;20027;-77
2022/06/03 07:20:01;;;;;;;0.28;0.28;;;;;;;;;;4974810;28;20365;-81
2022/06/03 07:22:46;;;;;;;0.50;0.50;;;;;;;;;;4977319;28;20501;-80
2022/06/03 07:25:27;;;;;;;0.40;0.40;;;;;;;;;;4980021;28;20050;-80
2022/06/03 07:27:54;;;;;;;0.73;0.68;;;;;;;;;;4974860;28;20019;-79
2022/06/03 07:30:23;;;;;;;1.40;1.13;;;;;;;;;;4971079;28;20058;-80
2022/06/03 07:33:11;;;;;;;2.58;1.38;;;;;;;;;;4992227;28;20058;-80
2022/06/03 07:35:52;;;;;;;0.52;0.45;;;;;;;;;;4974978;28;20062;-79
2022/06/03 07:38:42;;;;;;;0.35;0.35;;;;;;;;;;5007352;28;20030;-79
2022/06/03 07:41:16;;;;;;;0.20;0.20;;;;;;;;;;4978104;28;20023;-80
2022/06/03 07:44:09;;;;;;;2.90;0.45;;;;;;;;;;4974721;28;20027;-80
2022/06/03 07:46:43;;;;;;;;;;;;;;;;;;4972840;28;20051;-80
2022/06/03 07:49:09;;;;;;;0.60;0.60;;;;;;;;;;4975612;28;19910;-80
2022/06/03 07:51:42;;;;;;;0.28;0.28;;;;;;;;;;4975125;28;20388;-80
2022/06/03 07:54:28;;;;;;;0.63;0.30;;;;;;;;;;4990990;28;20065;-79
2022/06/03 07:57:16;;;;;;;0.60;0.22;;;;;;;;;;4973152;28;20487;-79
2022/06/03 07:59:42;;;;;;;0.43;0.22;;;;;;;;;;5004800;28;20451;-80
2022/06/03 08:02:13;;;;;;;0.38;0.38;;;;;;;;;;4974899;28;20081;-79
2022/06/03 08:04:39;;;;;;;0.20;0.20;;;;;;;;;;4972875;28;20035;-79
2022/06/03 08:12:56;;;;;;;0.45;0.45;;;;;;;;;;4974621;28;20049;-80
2022/06/03 08:15:31;;;;;;;0.10;0.10;;;;;;;;;;4972683;28;20034;-80
2022/06/03 08:17:57;;;;;;;0.22;0.22;;;;;;;;;;4973722;28;20030;-80
2022/06/03 08:20:24;;;;;;;0.40;0.40;;;;;;;;;;5006280;28;20037;-79
2022/06/03 08:22:53;;;;;;;0.35;0.28;;;;;;;;;;4968406;28;20053;-80
2022/06/03 08:25:26;;;;;;;0.22;0.22;;;;;;;;;;4974060;28;20023;-80
2022/06/03 08:27:53;;;;;;;0.30;0.30;;;;;;;;;;4974288;28;20033;-80
2022/06/03 08:30:22;;;;;;;2.50;0.43;;;;;;;;;;4957533;28;20026;-80
2022/06/03 08:32:56;;;;;;;0.22;0.20;;;;;;;;;;4990446;28;20027;-79
2022/06/03 08:35:24;;;;;;;1.00;0.75;;;;;;;;;;4973921;28;20333;-80
2022/06/03 08:37:53;;;;;;;0.70;0.70;;;;;;;;;;4974277;28;20044;-80
2022/06/03 08:40:23;;;;;;;0.38;0.38;;;;;;;;;;4959112;28;20054;-80
2022/06/03 08:43:12;;;;;;;0.28;0.28;;;;;;;;;;4978763;28;20114;-79
2022/06/03 08:45:40;;;;;;;0.45;0.45;;;;;;;;;;4978801;28;20046;-80
2022/06/03 08:48:14;;;;;;;0.38;0.35;;;;;;;;;;4978737;28;20038;-80
2022/06/03 08:50:56;;;;;;;0.75;0.30;;;;;;;;;;4974688;28;21867;-80
2022/06/03 08:53:46;;;;;;;0.98;0.38;;;;;;;;;;4964964;28;20689;-81
2022/06/03 08:56:20;;;;;;;15.75;0.85;;;;;;;;;;4972775;28;20507;-81
2022/06/03 08:58:56;;;;;;;2.13;0.40;;;;;;;;;;4976049;28;20031;-81
2022/06/03 09:01:41;;;;;;;0.50;0.50;;;;;;;;;;4975929;28;20010;-80
2022/06/03 09:04:25;;;;;;;0.90;0.50;;;;;;;;;;4977591;28;20034;-80
2022/06/03 09:07:07;;;;;;;0.88;0.60;;;;;;;;;;4977420;28;20065;-81
2022/06/03 09:09:38;;;;;;;0.22;0.22;;;;;;;;;;4978372;28;20058;-79
2022/06/03 09:12:20;;;;;;;0.45;0.45;;;;;;;;;;4967358;28;20042;-81
2022/06/03 09:14:50;;;;;;;0.20;0.20;;;;;;;;;;4977325;28;20449;-80
2022/06/03 09:17:57;;;;;;;0.20;0.20;;;;;;;;;;4976578;28;20391;-80
2022/06/03 09:20:28;;;;;;;0.30;0.20;;;;;;;;;;4992063;28;20049;-78
2022/06/03 09:23:02;;;;;;;0.23;0.23;;;;;;;;;;4976448;28;20337;-78
2022/06/03 09:25:31;;;;;;;0.20;0.20;;;;;;;;;;4952213;28;20289;-77
2022/06/03 09:28:00;;;;;;;0.10;0.10;;;;;;;;;;4972178;28;20220;-78
2022/06/03 09:30:38;;;;;;;0.20;0.20;;;;;;;;;;4972949;28;20026;-78
2022/06/03 09:33:05;;;;;;;0.80;0.57;;;;;;;;;;4987838;28;20026;-78
2022/06/03 09:35:34;;;;;;;0.30;0.30;;;;;;;;;;4989721;28;20054;-78
2022/06/03 09:38:01;;;;;;;0.50;0.50;;;;;;;;;;4975823;28;20035;-78
2022/06/03 09:40:39;;;;;;;0.20;0.20;;;;;;;;;;4990693;28;20116;-78
2022/06/03 09:43:27;;;;;;;0.10;0.10;;;;;;;;;;4984109;28;20034;-78
2022/06/03 09:45:58;;;;;;;0.45;0.35;;;;;;;;;;4983734;28;20039;-77
2022/06/03 09:48:26;;;;;;;0.43;0.43;;;;;;;;;;4973973;28;20065;-78
2022/06/03 09:50:53;;;;;;;0.28;0.20;;;;;;;;;;4954123;28;20026;-78
2022/06/03 09:53:20;;;;;;;0.63;0.35;;;;;;;;;;4976400;28;20122;-77
2022/06/03 09:55:54;;;;;;;0.10;0.10;;;;;;;;;;4976661;28;20030;-77
2022/06/03 09:58:22;;;;;;;0.10;0.10;;;;;;;;;;4988895;28;20118;-76
2022/06/03 10:00:58;;;;;;;0.43;0.43;;;;;;;;;;4976036;28;20038;-76
2022/06/03 10:03:24;;;;;;;0.28;0.28;;;;;;;;;;4988039;28;20035;-76
2022/06/03 10:05:54;;;;;;;0.20;0.20;;;;;;;;;;4992005;28;20030;-76
2022/06/03 10:08:24;;;;;;;0.28;0.28;;;;;;;;;;4976842;28;20085;-76
2022/06/03 10:13:39;;;;;;;0.82;0.68;;;;;;;;;;4979724;28;20133;-76
2022/06/03 10:16:07;;;;;;;0.45;0.45;;;;;;;;;;4976618;28;20038;-76
2022/06/03 10:18:35;;;;;;;0.40;0.40;;;;;;;;;;4976704;28;20134;-76
2022/06/03 10:21:14;;;;;;;0.65;0.40;;;;;;;;;;4977174;28;20102;-76
2022/06/03 10:23:42;;;;;;;0.20;0.20;;;;;;;;;;4978651;28;20081;-76
2022/06/03 10:26:08;;;;;;;0.30;0.30;;;;;;;;;;4977285;28;20039;-77
2022/06/03 10:28:36;;;;;;;0.10;0.10;;;;;;;;;;4976835;28;20101;-76
2022/06/03 10:31:14;;;;;;;1.67;0.57;;;;;;;;;;4977152;28;20344;-77
2022/06/03 10:33:44;;;;;;;0.05;0.05;;;;;;;;;;4977221;28;20023;-76
2022/06/03 10:36:09;;;;;;;0.15;0.15;;;;;;;;;;4975985;28;20041;-76
2022/06/03 10:38:36;;;;;;;0.57;0.50;;;;;;;;;;4975679;28;20383;-76
2022/06/03 10:41:09;;;;;;;0.22;0.22;;;;;;;;;;4976260;28;20078;-76
2022/06/03 10:43:36;;;;;;;0.30;0.30;;;;;;;;;;4975983;28;20042;-76
2022/06/03 10:46:31;;;;;;;0.20;0.20;;;;;;;;;;4975905;28;20448;-76
2022/06/03 10:49:10;;;;;;;0.77;0.75;;;;;;;;;;4975445;28;20137;-76
2022/06/03 11:02:44;;;;;;;0.20;0.20;;;;;;;;;;4975159;28;20049;-76
2022/06/03 11:05:27;;;;;;;0.50;0.40;;;;;;;;;;4977828;28;20082;-76
2022/06/03 11:08:08;;;;;;;0.22;0.20;;;;;;;;;;4975431;28;20027;-76
2022/06/03 11:10:45;;;;;;;0.38;0.38;;;;;;;;;;4986441;28;20097;-76
2022/06/03 11:13:26;;;;;;;0.20;0.20;;;;;;;;;;4976983;28;20042;-76
2022/06/03 11:15:51;;;;;;;0.20;0.20;;;;;;;;;;4956275;28;20384;-76
2022/06/03 11:18:24;;;;;;;0.20;0.20;;;;;;;;;;4975052;28;20049;-76
2022/06/03 11:20:51;;;;;;;0.98;0.52;;;;;;;;;;4976209;28;20030;-76
2022/06/03 11:23:18;;;;;;;0.40;0.32;;;;;;;;;;4975256;28;20085;-76
2022/06/03 11:25:51;;;;;;;0.25;0.25;;;;;;;;;;5007263;28;20035;-76
2022/06/03 11:28:21;;;;;;;0.50;0.10;;;;;;;;;;4975103;28;20065;-76
2022/06/03 11:30:57;;;;;;;0.38;0.30;;;;;;;;;;4976015;28;20066;-76
2022/06/03 11:33:27;;;;;;;0.63;0.63;;;;;;;;;;4956963;28;20027;-77
2022/06/03 11:36:05;;;;;;;0.10;0.10;;;;;;;;;;4974483;28;20054;-77
2022/06/03 11:38:41;;;;;;;0.20;0.20;;;;;;;;;;4976635;28;20034;-76
2022/06/03 11:41:23;;;;;;;0.57;0.40;;;;;;;;;;4976205;28;20431;-76
2022/06/03 11:43:54;;;;;;;0.40;0.40;;;;;;;;;;4973099;28;20452;-77
2022/06/03 11:46:24;;;;;;;0.35;0.35;;;;;;;;;;4974837;28;20034;-76
2022/06/03 11:48:53;;;;;;;0.28;0.28;;;;;;;;;;4969904;28;20027;-77
2022/06/03 11:51:23;;;;;;;0.20;0.20;;;;;;;;;;4975541;28;20023;-77
2022/06/03 11:53:49;;;;;;;0.32;0.32;;;;;;;;;;4969363;28;20023;-76
2022/06/03 11:56:18;;;;;;;1.05;0.60;;;;;;;;;;4973205;28;20034;-75
2022/06/03 11:58:56;;;;;;;0.38;0.38;;;;;;;;;;4982736;28;20027;-76
2022/06/03 12:01:44;;;;;;;0.65;0.65;;;;;;;;;;4975889;28;20102;-76
2022/06/03 12:04:21;;;;;;;0.40;0.40;;;;;;;;;;4962216;28;20364;-76
2022/06/03 12:06:56;;;;;;;0.25;0.25;;;;;;;;;;4975959;28;20037;-76
2022/06/03 12:09:45;;;;;;;0.10;0.10;;;;;;;;;;4969744;28;20030;-76
2022/06/03 12:15:34;;;;;;;0.40;0.30;;;;;;;;;;4972625;28;20110;-75
2022/06/03 12:18:11;;;;;;;0.20;0.20;;;;;;;;;;4976670;28;20670;-76
2022/06/03 12:20:48;;;;;;;0.15;0.15;;;;;;;;;;4979115;28;20067;-76
2022/06/03 12:23:13;;;;;;;0.30;0.30;;;;;;;;;;4983548;28;20069;-77
2022/06/03 12:25:57;;;;;;;0.50;0.50;;;;;;;;;;4976463;28;20113;-76
2022/06/03 12:31:21;;;;;;;0.22;0.22;;;;;;;;;;4990366;28;20097;-77
2022/06/03 12:34:06;;;;;;;0.38;0.38;;;;;;;;;;4983873;28;20034;-77
2022/06/03 12:36:39;;;;;;;8.43;0.20;;;;;;;;;;4976114;28;20462;-76
2022/06/03 12:39:05;;;;;;;0.10;0.10;;;;;;;;;;4966073;28;20061;-76
2022/06/03 12:41:45;;;;;;;0.38;0.30;;;;;;;;;;4978980;28;20468;-76
2022/06/03 12:44:23;;;;;;;0.70;0.70;;;;;;;;;;4978993;28;20053;-76
2022/06/03 12:46:50;;;;;;;0.25;0.25;;;;;;;;;;4981267;28;20392;-76
2022/06/03 12:49:23;;;;;;;0.25;0.25;;;;;;;;;;4981068;28;20030;-76
2022/06/03 12:52:05;;;;;;;0.57;0.45;;;;;;;;;;4981710;28;20097;-76
2022/06/03 12:54:32;;;;;;;0.52;0.30;;;;;;;;;;4961106;28;20046;-76
2022/06/03 12:57:05;;;;;;;0.25;0.20;;;;;;;;;;4978935;28;20034;-76
2022/06/03 12:59:43;;;;;;;0.10;0.10;;;;;;;;;;4977969;28;20027;-76
2022/06/03 13:02:18;;;;;;;0.22;0.22;;;;;;;;;;4978130;28;20062;-78
2022/06/03 13:04:55;;;;;;;0.60;0.38;;;;;;;;;;4975529;28;20093;-77
2022/06/03 13:08:01;;;;;;;0.13;0.13;;;;;;;;;;4978712;28;20031;-77
2022/06/03 13:10:29;;;;;;;0.47;0.47;;;;;;;;;;5007325;28;20018;-77
2022/06/03 13:13:20;;;;;;;0.10;0.10;;;;;;;;;;4978687;28;20448;-77
2022/06/03 13:15:47;;;;;;;0.10;0.10;;;;;;;;;;4971745;28;20121;-78
2022/06/03 13:18:33;;;;;;;0.57;0.50;;;;;;;;;;5007190;28;20031;-77
2022/06/03 13:21:02;;;;;;;1.02;0.38;;;;;;;;;;4974784;28;20027;-77
2022/06/03 13:23:42;;;;;;;0.52;0.45;;;;;;;;;;4976854;28;20117;-77
2022/06/03 13:26:19;;;;;;;0.17;0.17;;;;;;;;;;4976983;28;20471;-77
2022/06/03 13:28:45;;;;;;;0.32;0.32;;;;;;;;;;4977407;28;20054;-77
2022/06/03 13:31:27;;;;;;;0.98;0.20;;;;;;;;;;4976712;28;20054;-77
2022/06/03 13:34:12;;;;;;;0.17;0.17;;;;;;;;;;4974672;28;20120;-78
2022/06/03 13:36:37;;;;;;;0.20;0.20;;;;;;;;;;4960496;28;20027;-77
2022/06/03 13:39:04;;;;;;;0.20;0.20;;;;;;;;;;4975197;28;20467;-78
2022/06/03 13:44:46;;;;;;;0.15;0.15;;;;;;;;;;4973087;28;20045;-76
2022/06/03 13:47:22;;;;;;;0.38;0.38;;;;;;;;;;4974959;28;20114;-77
2022/06/03 13:50:06;;;;;;;0.70;0.52;;;;;;;;;;4984857;28;20057;-77
2022/06/03 13:52:37;;;;;;;0.32;0.10;;;;;;;;;;4976526;28;20026;-77
2022/06/03 13:55:13;;;;;;;0.75;0.22;;;;;;;;;;4991555;28;20027;-76
2022/06/03 13:57:42;;;;;;;0.25;0.20;;;;;;;;;;4977696;28;20023;-77
2022/06/03 14:00:11;;;;;;;0.47;0.30;;;;;;;;;;4974004;28;20046;-76
2022/06/03 14:02:42;;;;;;;2.65;0.90;;;;;;;;;;4976036;28;20039;-76
2022/06/03 14:05:13;;;;;;;0.35;0.28;;;;;;;;;;4975140;28;20041;-76
2022/06/03 14:07:44;;;;;;;0.20;0.20;;;;;;;;;;4973276;28;20401;-75
2022/06/03 14:10:17;;;;;;;1.17;0.88;;;;;;;;;;4972663;28;20464;-76
2022/06/03 14:12:55;;;;;;;3.20;1.17;;;;;;;;;;4958726;28;20050;-76
2022/06/03 14:15:32;;;;;;;0.43;0.43;;;;;;;;;;4972685;28;20027;-76
2022/06/03 14:17:59;;;;;;;0.30;0.28;;;;;;;;;;4984786;28;20038;-76
2022/06/03 14:20:33;;;;;;;0.20;0.20;;;;;;;;;;4976914;28;20027;-76
2022/06/03 14:23:20;;;;;;;0.20;0.20;;;;;;;;;;4977323;28;20089;-76
2022/06/03 14:25:47;;;;;;;0.50;0.50;;;;;;;;;;4979560;28;20352;-76
2022/06/03 14:28:15;;;;;;;0.25;0.22;;;;;;;;;;4974763;28;20046;-76
2022/06/03 14:30:50;;;;;;;0.17;0.17;;;;;;;;;;4975218;28;20039;-76
2022/06/03 14:33:16;;;;;;;0.38;0.38;;;;;;;;;;4977102;28;20097;-77
2022/06/03 14:35:48;;;;;;;0.30;0.28;;;;;;;;;;5008644;28;20448;-76
2022/06/03 14:38:34;;;;;;;0.20;0.20;;;;;;;;;;4975500;28;20077;-77
2022/06/03 14:41:00;;;;;;;1.25;0.40;;;;;;;;;;4973882;28;20031;-77
2022/06/03 14:43:28;;;;;;;1.40;0.43;;;;;;;;;;4973398;28;21188;-76
2022/06/03 14:46:00;;;;;;;0.20;0.20;;;;;;;;;;4976751;28;20113;-76
2022/06/03 14:48:31;;;;;;;0.35;0.17;;;;;;;;;;4957465;28;20034;-76
2022/06/03 14:51:10;;;;;;;1.15;0.40;;;;;;;;;;4977791;28;20389;-77
2022/06/03 14:53:40;;;;;;;0.88;0.40;;;;;;;;;;4970495;28;20492;-76
2022/06/03 14:56:22;;;;;;;0.10;0.10;;;;;;;;;;4982173;28;20027;-76
2022/06/03 14:58:49;;;;;;;0.50;0.50;;;;;;;;;;4975378;28;20030;-76
2022/06/03 15:01:49;;;;;;;0.20;0.20;;;;;;;;;;4973571;28;20027;-76
2022/06/03 15:04:26;;;;;;;0.52;0.50;;;;;;;;;;4971272;28;20057;-76
2022/06/03 15:06:56;;;;;;;1.55;0.52;;;;;;;;;;4975695;28;20030;-76
2022/06/03 15:09:48;;;;;;;0.40;0.40;;;;;;;;;;4978253;28;20444;-76
2022/06/03 15:12:20;;;;;;;0.20;0.20;;;;;;;;;;4970470;28;20018;-77
2022/06/03 15:14:45;;;;;;;;;;;;;;;;;;4975131;28;20031;-76
2022/06/03 15:17:14;;;;;;;0.40;0.38;;;;;;;;;;4976939;28;19929;-76
2022/06/03 15:19:42;;;;;;;2.90;0.57;;;;;;;;;;4980708;28;20022;-76
2022/06/03 15:22:27;;;;;;;0.30;0.30;;;;;;;;;;4975782;28;20035;-76
2022/06/03 15:25:13;;;;;;;0.65;0.65;;;;;;;;;;4975117;28;20053;-77
2022/06/03 15:27:51;;;;;;;0.70;0.70;;;;;;;;;;5003055;28;20045;-77
2022/06/03 15:30:36;;;;;;;0.65;0.30;;;;;;;;;;4972373;28;20031;-78
2022/06/03 15:33:23;;;;;;;0.32;0.32;;;;;;;;;;4975912;28;20166;-77
2022/06/03 15:36:01;;;;;;;1.13;1.00;;;;;;;;;;4976082;28;20034;-78
2022/06/03 15:38:33;;;;;;;0.45;0.45;;;;;;;;;;4975790;28;20115;-77
2022/06/03 15:41:03;;;;;;;1.00;0.95;;;;;;;;;;4967235;28;20344;-77
2022/06/03 15:43:37;;;;;;;1.20;0.60;;;;;;;;;;4974512;28;20077;-77
2022/06/03 15:46:02;;;;;;;0.43;0.40;;;;;;;;;;4974621;28;20022;-76
2022/06/03 15:48:29;;;;;;;0.43;0.43;;;;;;;;;;4975088;28;20042;-77
2022/06/03 15:50:59;;;;;;;0.60;0.52;;;;;;;;;;4975432;28;20022;-76
2022/06/03 15:53:25;;;;;;;0.30;0.30;;;;;;;;;;4975560;28;20035;-77
2022/06/03 15:56:04;;;;;;;0.20;0.20;;;;;;;;;;4974549;28;20022;-77
2022/06/03 15:59:00;;;;;;;0.30;0.30;;;;;;;;;;4974005;28;20169;-77
2022/06/03 16:01:40;;;;;;;1.00;0.60;;;;;;;;;;5003892;28;20659;-77
2022/06/03 16:04:12;;;;;;;0.20;0.20;;;;;;;;;;4975360;28;20042;-76
2022/06/03 16:07:22;;;;;;;0.47;0.47;;;;;;;;;;4975416;28;20479;-77
2022/06/03 16:09:52;;;;;;;0.30;0.30;;;;;;;;;;4974254;28;20400;-76
2022/06/03 16:12:20;;;;;;;0.43;0.43;;;;;;;;;;4962478;28;20047;-76
2022/06/03 16:15:02;;;;;;;0.80;0.47;;;;;;;;;;4974534;28;20034;-77
2022/06/03 16:17:47;;;;;;;0.77;0.70;;;;;;;;;;4969465;28;20030;-76
2022/06/03 16:20:15;;;;;;;0.55;0.55;;;;;;;;;;4974390;28;20085;-77
2022/06/03 16:22:56;;;;;;;1.10;0.50;;;;;;;;;;4974327;28;20026;-76
2022/06/03 16:25:33;;;;;;;1.08;0.68;;;;;;;;;;4975225;28;20098;-77
2022/06/03 16:28:15;;;;;;;0.35;0.35;;;;;;;;;;4979099;28;20022;-77
2022/06/03 16:30:59;;;;;;;1.00;0.93;;;;;;;;;;4974077;28;20486;-77